Aeroporto :
LOGIN :

Iscrizione | Disclaimer

   EN    FR    IT 

 










Sommario :    VFR   VFR Marginale   IFR   IFR Intensivo   IFR Molto Intensivo
Visibilità : 
Base nubi : 
>= 8 km
>= 3000ft
5 / 8 km
1000 / 3000 ft
1500m / 5 km
500 / 1000 ft
800 / 1500m
200 / 500 ft
< 800m
< 200 ft
Simboli :   Temporali  Nebbia  Neve Forte  Precipitazioni Forti  Vento > 20 kt
SIGMETs :   Varie  Temporali  Ghiacco  Turbolenza  Onda orograficha  Ceneri Vulcaniche






- Altitudine del aeroporto : 20 ft


EBFN - Koksijde

ULTIMO METAR :
  • 281325Z 20011KT 9999 FEW040 SCT200 19/08 Q1018 BLU BLU

METARs OBSOLETI :
  • 281255Z 18010KT 9999 FEW037 SCT200 18/09 Q1019 BLU BLU
  • 281225Z 18012KT 9999 FEW034 SCT180 18/10 Q1019 BLU BLU
  • 281155Z 18012KT 9999 FEW035 SCT180 18/10 Q1020 BLU BLU
  • 281125Z 19010KT 9999 FEW032 SCT230 17/09 Q1020 BLU BLU
  • 281055Z 20011KT 9999 FEW032 SCT230 18/10 Q1020 BLU BLU

TAF TAF EBFN
Valido dal 28 a 13 ore il 28 a 22 ore UTC


281141Z 2813/2822 19012G22KT 9999 FEW040 SCT200
TEMPO 2813/2820 SCT035 BKN180



MetMap, La meteo Aeronautica in un colpo d'occhio ! - Copyright ORBIFLY Dicembre 2007 - Disclaimer

ORBIFLY MET'MAP TEAM :

Programmazione e sviluppo : Alexandra Zaïnal
Concezione : Baudouin d'Aumeries
Aiuto per la programmazione : Marc-Olivier Méhu
Supporto tecnico e logistico : Manuel Goepfert
Aiuto per la traduzione : Arnaldo La Scala

Contatto : metmap@orbifly.com




FONTI E CREDITI :

   NOAA